sensor_id;sensor_type;location;lat;lon;timestamp;P1;durP1;ratioP1;P2;durP2;ratioP2
72388;SDS011;60566;48.062;9.930;2023-02-28T00:01:55;6.70;;;4.82;;
72388;SDS011;60566;48.062;9.930;2023-02-28T00:04:21;5.90;;;3.88;;
72388;SDS011;60566;48.062;9.930;2023-02-28T00:06:46;6.20;;;4.25;;
72388;SDS011;60566;48.062;9.930;2023-02-28T00:09:12;6.80;;;4.05;;
72388;SDS011;60566;48.062;9.930;2023-02-28T00:11:38;6.88;;;4.28;;
72388;SDS011;60566;48.062;9.930;2023-02-28T00:14:04;5.32;;;3.17;;
72388;SDS011;60566;48.062;9.930;2023-02-28T00:16:29;5.32;;;3.33;;
72388;SDS011;60566;48.062;9.930;2023-02-28T00:18:55;4.35;;;2.83;;
72388;SDS011;60566;48.062;9.930;2023-02-28T00:21:20;9.43;;;5.15;;
72388;SDS011;60566;48.062;9.930;2023-02-28T00:23:46;5.53;;;3.70;;
72388;SDS011;60566;48.062;9.930;2023-02-28T00:26:11;5.03;;;2.80;;
72388;SDS011;60566;48.062;9.930;2023-02-28T00:28:38;4.93;;;3.58;;
72388;SDS011;60566;48.062;9.930;2023-02-28T00:31:03;7.10;;;3.28;;
72388;SDS011;60566;48.062;9.930;2023-02-28T00:33:29;7.18;;;4.22;;
72388;SDS011;60566;48.062;9.930;2023-02-28T00:36:00;9.07;;;3.50;;
72388;SDS011;60566;48.062;9.930;2023-02-28T00:38:30;6.20;;;3.65;;
72388;SDS011;60566;48.062;9.930;2023-02-28T00:40:56;9.75;;;3.63;;
72388;SDS011;60566;48.062;9.930;2023-02-28T00:43:22;8.18;;;3.08;;
72388;SDS011;60566;48.062;9.930;2023-02-28T00:45:48;8.63;;;4.00;;
72388;SDS011;60566;48.062;9.930;2023-02-28T00:48:14;6.57;;;3.55;;
72388;SDS011;60566;48.062;9.930;2023-02-28T00:50:39;4.97;;;3.53;;
72388;SDS011;60566;48.062;9.930;2023-02-28T00:53:05;5.47;;;3.35;;
72388;SDS011;60566;48.062;9.930;2023-02-28T00:55:30;6.38;;;3.42;;
72388;SDS011;60566;48.062;9.930;2023-02-28T00:57:55;5.05;;;3.22;;
72388;SDS011;60566;48.062;9.930;2023-02-28T01:00:21;6.57;;;3.63;;
72388;SDS011;60566;48.062;9.930;2023-02-28T01:02:47;4.80;;;3.08;;
72388;SDS011;60566;48.062;9.930;2023-02-28T01:05:13;6.70;;;3.60;;
72388;SDS011;60566;48.062;9.930;2023-02-28T01:07:38;4.72;;;3.00;;
72388;SDS011;60566;48.062;9.930;2023-02-28T01:10:04;5.57;;;3.35;;
72388;SDS011;60566;48.062;9.930;2023-02-28T01:12:30;5.32;;;3.00;;
72388;SDS011;60566;48.062;9.930;2023-02-28T01:14:55;6.93;;;3.47;;
72388;SDS011;60566;48.062;9.930;2023-02-28T01:17:21;5.85;;;2.90;;
72388;SDS011;60566;48.062;9.930;2023-02-28T01:19:47;6.63;;;3.78;;
72388;SDS011;60566;48.062;9.930;2023-02-28T01:22:13;4.15;;;2.47;;
72388;SDS011;60566;48.062;9.930;2023-02-28T01:24:38;6.05;;;2.47;;
72388;SDS011;60566;48.062;9.930;2023-02-28T01:27:03;7.97;;;3.47;;
72388;SDS011;60566;48.062;9.930;2023-02-28T01:29:29;5.25;;;3.47;;
72388;SDS011;60566;48.062;9.930;2023-02-28T01:31:54;7.65;;;3.90;;
72388;SDS011;60566;48.062;9.930;2023-02-28T01:34:20;7.38;;;3.10;;
72388;SDS011;60566;48.062;9.930;2023-02-28T01:36:46;5.60;;;3.75;;
72388;SDS011;60566;48.062;9.930;2023-02-28T01:39:12;7.88;;;3.72;;
72388;SDS011;60566;48.062;9.930;2023-02-28T01:41:37;5.53;;;3.08;;
72388;SDS011;60566;48.062;9.930;2023-02-28T01:44:03;10.52;;;4.85;;
72388;SDS011;60566;48.062;9.930;2023-02-28T01:46:30;10.55;;;3.97;;
72388;SDS011;60566;48.062;9.930;2023-02-28T01:48:58;4.32;;;2.78;;
72388;SDS011;60566;48.062;9.930;2023-02-28T01:51:28;6.65;;;4.20;;
72388;SDS011;60566;48.062;9.930;2023-02-28T01:53:57;5.55;;;3.78;;
72388;SDS011;60566;48.062;9.930;2023-02-28T01:56:27;6.03;;;4.05;;
72388;SDS011;60566;48.062;9.930;2023-02-28T01:58:56;6.65;;;3.50;;
72388;SDS011;60566;48.062;9.930;2023-02-28T02:01:21;8.00;;;4.28;;
72388;SDS011;60566;48.062;9.930;2023-02-28T02:03:47;6.50;;;4.40;;
72388;SDS011;60566;48.062;9.930;2023-02-28T02:06:13;5.22;;;3.58;;
72388;SDS011;60566;48.062;9.930;2023-02-28T02:08:39;6.82;;;4.03;;
72388;SDS011;60566;48.062;9.930;2023-02-28T02:11:07;4.75;;;3.10;;
72388;SDS011;60566;48.062;9.930;2023-02-28T02:13:42;7.68;;;4.18;;
72388;SDS011;60566;48.062;9.930;2023-02-28T02:16:24;7.32;;;4.25;;
72388;SDS011;60566;48.062;9.930;2023-02-28T02:18:59;6.15;;;3.40;;
72388;SDS011;60566;48.062;9.930;2023-02-28T02:24:29;6.85;;;3.63;;
72388;SDS011;60566;48.062;9.930;2023-02-28T02:27:41;6.80;;;3.78;;
72388;SDS011;60566;48.062;9.930;2023-02-28T02:36:09;5.57;;;3.72;;
72388;SDS011;60566;48.062;9.930;2023-02-28T02:38:39;8.15;;;4.95;;
72388;SDS011;60566;48.062;9.930;2023-02-28T02:41:10;5.85;;;4.20;;
72388;SDS011;60566;48.062;9.930;2023-02-28T02:43:40;7.35;;;3.83;;
72388;SDS011;60566;48.062;9.930;2023-02-28T02:46:10;9.50;;;4.82;;
72388;SDS011;60566;48.062;9.930;2023-02-28T02:48:38;7.00;;;4.13;;
72388;SDS011;60566;48.062;9.930;2023-02-28T02:51:06;9.85;;;4.35;;
72388;SDS011;60566;48.062;9.930;2023-02-28T02:53:35;6.53;;;4.13;;
72388;SDS011;60566;48.062;9.930;2023-02-28T02:56:03;5.65;;;3.72;;
72388;SDS011;60566;48.062;9.930;2023-02-28T02:58:30;6.72;;;4.40;;
72388;SDS011;60566;48.062;9.930;2023-02-28T03:00:58;7.93;;;5.45;;
72388;SDS011;60566;48.062;9.930;2023-02-28T03:03:25;8.40;;;4.13;;
72388;SDS011;60566;48.062;9.930;2023-02-28T03:05:51;8.25;;;4.15;;
72388;SDS011;60566;48.062;9.930;2023-02-28T03:08:17;7.32;;;5.32;;
72388;SDS011;60566;48.062;9.930;2023-02-28T03:10:44;6.20;;;3.88;;
72388;SDS011;60566;48.062;9.930;2023-02-28T03:19:03;7.80;;;4.57;;
72388;SDS011;60566;48.062;9.930;2023-02-28T03:21:36;6.75;;;4.38;;
72388;SDS011;60566;48.062;9.930;2023-02-28T03:24:05;8.00;;;4.28;;
72388;SDS011;60566;48.062;9.930;2023-02-28T03:26:36;7.15;;;4.63;;
72388;SDS011;60566;48.062;9.930;2023-02-28T03:29:05;9.70;;;4.68;;
72388;SDS011;60566;48.062;9.930;2023-02-28T03:31:35;10.13;;;4.88;;
72388;SDS011;60566;48.062;9.930;2023-02-28T03:36:29;7.32;;;4.20;;
72388;SDS011;60566;48.062;9.930;2023-02-28T03:38:56;11.75;;;5.25;;
72388;SDS011;60566;48.062;9.930;2023-02-28T03:41:23;8.70;;;4.63;;
72388;SDS011;60566;48.062;9.930;2023-02-28T03:43:53;9.43;;;5.70;;
72388;SDS011;60566;48.062;9.930;2023-02-28T03:46:21;9.13;;;4.80;;
72388;SDS011;60566;48.062;9.930;2023-02-28T03:48:49;11.93;;;5.15;;
72388;SDS011;60566;48.062;9.930;2023-02-28T03:51:17;9.57;;;4.97;;
72388;SDS011;60566;48.062;9.930;2023-02-28T03:53:45;11.60;;;5.50;;
72388;SDS011;60566;48.062;9.930;2023-02-28T03:56:13;8.55;;;4.85;;
72388;SDS011;60566;48.062;9.930;2023-02-28T03:58:41;9.10;;;5.20;;
72388;SDS011;60566;48.062;9.930;2023-02-28T04:01:13;8.05;;;4.68;;
72388;SDS011;60566;48.062;9.930;2023-02-28T04:03:40;10.20;;;5.53;;
72388;SDS011;60566;48.062;9.930;2023-02-28T04:06:07;9.85;;;6.53;;
72388;SDS011;60566;48.062;9.930;2023-02-28T04:08:33;10.25;;;5.22;;
72388;SDS011;60566;48.062;9.930;2023-02-28T04:11:00;10.45;;;5.68;;
72388;SDS011;60566;48.062;9.930;2023-02-28T04:13:28;11.50;;;6.18;;
72388;SDS011;60566;48.062;9.930;2023-02-28T04:15:54;9.02;;;5.13;;
72388;SDS011;60566;48.062;9.930;2023-02-28T04:18:20;8.70;;;4.35;;
72388;SDS011;60566;48.062;9.930;2023-02-28T04:20:46;9.75;;;5.43;;
72388;SDS011;60566;48.062;9.930;2023-02-28T04:23:11;8.60;;;5.13;;
72388;SDS011;60566;48.062;9.930;2023-02-28T04:25:37;9.77;;;5.20;;
72388;SDS011;60566;48.062;9.930;2023-02-28T04:28:02;8.82;;;5.10;;
72388;SDS011;60566;48.062;9.930;2023-02-28T04:30:27;9.52;;;4.78;;
72388;SDS011;60566;48.062;9.930;2023-02-28T04:32:53;9.82;;;5.57;;
72388;SDS011;60566;48.062;9.930;2023-02-28T04:35:19;9.63;;;5.82;;
72388;SDS011;60566;48.062;9.930;2023-02-28T04:37:45;10.15;;;5.50;;
72388;SDS011;60566;48.062;9.930;2023-02-28T04:40:10;15.77;;;7.85;;
72388;SDS011;60566;48.062;9.930;2023-02-28T04:42:36;8.45;;;4.32;;
72388;SDS011;60566;48.062;9.930;2023-02-28T04:45:01;11.70;;;6.28;;
72388;SDS011;60566;48.062;9.930;2023-02-28T04:47:27;8.27;;;5.97;;
72388;SDS011;60566;48.062;9.930;2023-02-28T04:49:52;17.10;;;5.47;;
72388;SDS011;60566;48.062;9.930;2023-02-28T04:52:19;8.57;;;4.72;;
72388;SDS011;60566;48.062;9.930;2023-02-28T04:54:45;9.13;;;5.45;;
72388;SDS011;60566;48.062;9.930;2023-02-28T04:57:10;9.65;;;5.03;;
72388;SDS011;60566;48.062;9.930;2023-02-28T04:59:35;15.88;;;5.35;;
72388;SDS011;60566;48.062;9.930;2023-02-28T05:02:01;9.50;;;5.93;;
72388;SDS011;60566;48.062;9.930;2023-02-28T05:04:26;9.70;;;4.95;;
72388;SDS011;60566;48.062;9.930;2023-02-28T05:06:52;11.70;;;6.25;;
72388;SDS011;60566;48.062;9.930;2023-02-28T05:09:18;10.35;;;6.68;;
72388;SDS011;60566;48.062;9.930;2023-02-28T05:11:44;7.55;;;4.80;;
72388;SDS011;60566;48.062;9.930;2023-02-28T05:14:10;12.15;;;5.70;;
72388;SDS011;60566;48.062;9.930;2023-02-28T05:16:36;9.73;;;5.70;;
72388;SDS011;60566;48.062;9.930;2023-02-28T05:19:02;9.43;;;6.20;;
72388;SDS011;60566;48.062;9.930;2023-02-28T05:21:28;10.50;;;6.10;;
72388;SDS011;60566;48.062;9.930;2023-02-28T05:23:54;9.75;;;5.90;;
72388;SDS011;60566;48.062;9.930;2023-02-28T05:26:21;10.27;;;5.88;;
72388;SDS011;60566;48.062;9.930;2023-02-28T05:28:47;10.13;;;5.47;;
72388;SDS011;60566;48.062;9.930;2023-02-28T05:31:13;10.13;;;6.80;;
72388;SDS011;60566;48.062;9.930;2023-02-28T05:33:38;11.63;;;5.63;;
72388;SDS011;60566;48.062;9.930;2023-02-28T05:36:04;13.88;;;7.60;;
72388;SDS011;60566;48.062;9.930;2023-02-28T05:38:30;7.85;;;4.63;;
72388;SDS011;60566;48.062;9.930;2023-02-28T05:40:59;10.35;;;6.05;;
72388;SDS011;60566;48.062;9.930;2023-02-28T05:43:25;10.23;;;6.07;;
72388;SDS011;60566;48.062;9.930;2023-02-28T05:45:51;10.40;;;6.00;;
72388;SDS011;60566;48.062;9.930;2023-02-28T05:48:17;10.35;;;6.07;;
72388;SDS011;60566;48.062;9.930;2023-02-28T05:50:42;14.18;;;6.47;;
72388;SDS011;60566;48.062;9.930;2023-02-28T05:53:07;14.98;;;7.80;;
72388;SDS011;60566;48.062;9.930;2023-02-28T05:55:33;14.35;;;6.68;;
72388;SDS011;60566;48.062;9.930;2023-02-28T05:57:59;13.63;;;6.75;;
72388;SDS011;60566;48.062;9.930;2023-02-28T06:00:26;10.18;;;6.15;;
72388;SDS011;60566;48.062;9.930;2023-02-28T06:02:51;9.85;;;5.45;;
72388;SDS011;60566;48.062;9.930;2023-02-28T06:05:17;14.18;;;6.38;;
72388;SDS011;60566;48.062;9.930;2023-02-28T06:07:43;12.88;;;6.00;;
72388;SDS011;60566;48.062;9.930;2023-02-28T06:10:09;11.07;;;5.70;;
72388;SDS011;60566;48.062;9.930;2023-02-28T06:12:35;10.18;;;5.45;;
72388;SDS011;60566;48.062;9.930;2023-02-28T06:15:00;13.50;;;6.88;;
72388;SDS011;60566;48.062;9.930;2023-02-28T06:17:27;18.25;;;7.88;;
72388;SDS011;60566;48.062;9.930;2023-02-28T06:19:53;12.88;;;6.85;;
72388;SDS011;60566;48.062;9.930;2023-02-28T06:22:18;11.77;;;5.80;;
72388;SDS011;60566;48.062;9.930;2023-02-28T06:24:43;9.23;;;5.70;;
72388;SDS011;60566;48.062;9.930;2023-02-28T06:27:09;14.00;;;7.85;;
72388;SDS011;60566;48.062;9.930;2023-02-28T06:29:37;10.13;;;6.18;;
72388;SDS011;60566;48.062;9.930;2023-02-28T06:32:02;15.30;;;8.45;;
72388;SDS011;60566;48.062;9.930;2023-02-28T06:34:29;13.85;;;8.18;;
72388;SDS011;60566;48.062;9.930;2023-02-28T06:36:55;17.52;;;8.05;;
72388;SDS011;60566;48.062;9.930;2023-02-28T06:39:20;13.93;;;7.78;;
72388;SDS011;60566;48.062;9.930;2023-02-28T06:41:45;13.05;;;7.15;;
72388;SDS011;60566;48.062;9.930;2023-02-28T06:44:11;14.82;;;7.20;;
72388;SDS011;60566;48.062;9.930;2023-02-28T06:46:38;12.13;;;6.85;;
72388;SDS011;60566;48.062;9.930;2023-02-28T06:49:03;12.75;;;7.25;;
72388;SDS011;60566;48.062;9.930;2023-02-28T06:51:30;20.17;;;8.52;;
72388;SDS011;60566;48.062;9.930;2023-02-28T06:53:55;18.05;;;8.55;;
72388;SDS011;60566;48.062;9.930;2023-02-28T06:56:21;14.38;;;7.70;;
72388;SDS011;60566;48.062;9.930;2023-02-28T06:58:46;11.90;;;6.20;;
72388;SDS011;60566;48.062;9.930;2023-02-28T07:01:13;14.18;;;8.25;;
72388;SDS011;60566;48.062;9.930;2023-02-28T07:03:38;10.93;;;6.68;;
72388;SDS011;60566;48.062;9.930;2023-02-28T07:06:04;17.08;;;8.02;;
72388;SDS011;60566;48.062;9.930;2023-02-28T07:08:34;18.25;;;8.10;;
72388;SDS011;60566;48.062;9.930;2023-02-28T07:10:59;14.95;;;7.63;;
72388;SDS011;60566;48.062;9.930;2023-02-28T07:13:25;18.23;;;8.35;;
72388;SDS011;60566;48.062;9.930;2023-02-28T07:15:54;10.25;;;6.57;;
72388;SDS011;60566;48.062;9.930;2023-02-28T07:18:20;16.42;;;8.23;;
72388;SDS011;60566;48.062;9.930;2023-02-28T07:20:45;16.55;;;8.23;;
72388;SDS011;60566;48.062;9.930;2023-02-28T07:23:10;14.05;;;7.38;;
72388;SDS011;60566;48.062;9.930;2023-02-28T07:25:37;14.27;;;7.78;;
72388;SDS011;60566;48.062;9.930;2023-02-28T07:28:03;12.63;;;6.88;;
72388;SDS011;60566;48.062;9.930;2023-02-28T07:30:28;14.05;;;7.82;;
72388;SDS011;60566;48.062;9.930;2023-02-28T07:32:53;18.92;;;8.55;;
72388;SDS011;60566;48.062;9.930;2023-02-28T07:35:19;19.90;;;8.38;;
72388;SDS011;60566;48.062;9.930;2023-02-28T07:37:44;16.15;;;8.05;;
72388;SDS011;60566;48.062;9.930;2023-02-28T07:40:10;14.02;;;9.30;;
72388;SDS011;60566;48.062;9.930;2023-02-28T07:42:38;14.43;;;8.20;;
72388;SDS011;60566;48.062;9.930;2023-02-28T07:45:04;18.20;;;9.52;;
72388;SDS011;60566;48.062;9.930;2023-02-28T07:47:30;12.95;;;6.10;;
72388;SDS011;60566;48.062;9.930;2023-02-28T07:49:56;14.80;;;9.23;;
72388;SDS011;60566;48.062;9.930;2023-02-28T07:52:21;18.00;;;8.18;;
72388;SDS011;60566;48.062;9.930;2023-02-28T07:54:47;15.05;;;8.32;;
72388;SDS011;60566;48.062;9.930;2023-02-28T07:57:12;15.82;;;7.97;;
72388;SDS011;60566;48.062;9.930;2023-02-28T07:59:39;19.40;;;10.80;;
72388;SDS011;60566;48.062;9.930;2023-02-28T08:02:05;16.27;;;7.95;;
72388;SDS011;60566;48.062;9.930;2023-02-28T08:04:31;19.33;;;10.80;;
72388;SDS011;60566;48.062;9.930;2023-02-28T08:06:56;17.80;;;8.63;;
72388;SDS011;60566;48.062;9.930;2023-02-28T08:09:22;15.23;;;8.48;;
72388;SDS011;60566;48.062;9.930;2023-02-28T08:11:47;17.45;;;9.48;;
72388;SDS011;60566;48.062;9.930;2023-02-28T08:14:12;12.35;;;7.78;;
72388;SDS011;60566;48.062;9.930;2023-02-28T08:16:42;17.35;;;8.85;;
72388;SDS011;60566;48.062;9.930;2023-02-28T08:19:07;16.58;;;8.77;;
72388;SDS011;60566;48.062;9.930;2023-02-28T08:21:33;12.68;;;7.28;;
72388;SDS011;60566;48.062;9.930;2023-02-28T08:23:58;16.77;;;8.32;;
72388;SDS011;60566;48.062;9.930;2023-02-28T08:26:25;14.23;;;7.53;;
72388;SDS011;60566;48.062;9.930;2023-02-28T08:28:51;14.43;;;7.13;;
72388;SDS011;60566;48.062;9.930;2023-02-28T08:31:16;17.60;;;9.07;;
72388;SDS011;60566;48.062;9.930;2023-02-28T08:33:44;15.75;;;8.35;;
72388;SDS011;60566;48.062;9.930;2023-02-28T08:36:09;18.25;;;9.15;;
72388;SDS011;60566;48.062;9.930;2023-02-28T08:38:35;15.52;;;9.07;;
72388;SDS011;60566;48.062;9.930;2023-02-28T08:41:02;17.50;;;8.32;;
72388;SDS011;60566;48.062;9.930;2023-02-28T08:43:29;21.77;;;10.73;;
72388;SDS011;60566;48.062;9.930;2023-02-28T08:45:55;19.42;;;10.73;;
72388;SDS011;60566;48.062;9.930;2023-02-28T08:48:20;24.27;;;9.48;;
72388;SDS011;60566;48.062;9.930;2023-02-28T08:50:55;23.58;;;10.75;;
72388;SDS011;60566;48.062;9.930;2023-02-28T08:53:21;12.30;;;7.07;;
72388;SDS011;60566;48.062;9.930;2023-02-28T08:55:47;15.23;;;9.40;;
72388;SDS011;60566;48.062;9.930;2023-02-28T08:58:12;16.30;;;8.45;;
72388;SDS011;60566;48.062;9.930;2023-02-28T09:00:37;15.88;;;8.27;;
72388;SDS011;60566;48.062;9.930;2023-02-28T09:03:03;14.60;;;7.60;;
72388;SDS011;60566;48.062;9.930;2023-02-28T09:05:28;21.50;;;9.85;;
72388;SDS011;60566;48.062;9.930;2023-02-28T09:07:55;22.90;;;12.68;;
72388;SDS011;60566;48.062;9.930;2023-02-28T09:10:20;23.25;;;10.73;;
72388;SDS011;60566;48.062;9.930;2023-02-28T09:12:46;24.52;;;9.52;;
72388;SDS011;60566;48.062;9.930;2023-02-28T09:15:11;14.00;;;7.35;;
72388;SDS011;60566;48.062;9.930;2023-02-28T09:17:36;19.48;;;9.10;;
72388;SDS011;60566;48.062;9.930;2023-02-28T09:20:02;21.75;;;10.05;;
72388;SDS011;60566;48.062;9.930;2023-02-28T09:22:28;19.83;;;8.95;;
72388;SDS011;60566;48.062;9.930;2023-02-28T09:24:54;20.08;;;10.25;;
72388;SDS011;60566;48.062;9.930;2023-02-28T09:27:20;20.13;;;10.13;;
72388;SDS011;60566;48.062;9.930;2023-02-28T09:29:45;15.75;;;7.70;;
72388;SDS011;60566;48.062;9.930;2023-02-28T09:32:11;17.60;;;9.23;;
72388;SDS011;60566;48.062;9.930;2023-02-28T09:34:36;13.55;;;8.68;;
72388;SDS011;60566;48.062;9.930;2023-02-28T09:37:02;20.02;;;10.35;;
72388;SDS011;60566;48.062;9.930;2023-02-28T09:39:27;15.57;;;9.10;;
72388;SDS011;60566;48.062;9.930;2023-02-28T09:41:54;25.48;;;10.80;;
72388;SDS011;60566;48.062;9.930;2023-02-28T09:44:22;20.40;;;10.40;;
72388;SDS011;60566;48.062;9.930;2023-02-28T09:46:54;18.55;;;9.93;;
72388;SDS011;60566;48.062;9.930;2023-02-28T09:49:22;13.50;;;7.35;;
72388;SDS011;60566;48.062;9.930;2023-02-28T09:51:50;18.33;;;9.80;;
72388;SDS011;60566;48.062;9.930;2023-02-28T09:54:17;19.13;;;9.13;;
72388;SDS011;60566;48.062;9.930;2023-02-28T09:56:44;17.70;;;10.35;;
72388;SDS011;60566;48.062;9.930;2023-02-28T09:59:13;19.60;;;11.02;;
72388;SDS011;60566;48.062;9.930;2023-02-28T10:01:43;14.30;;;7.65;;
72388;SDS011;60566;48.062;9.930;2023-02-28T10:04:14;18.15;;;10.48;;
72388;SDS011;60566;48.062;9.930;2023-02-28T10:06:42;18.95;;;9.50;;
72388;SDS011;60566;48.062;9.930;2023-02-28T10:09:11;17.05;;;10.00;;
72388;SDS011;60566;48.062;9.930;2023-02-28T10:11:40;19.95;;;10.35;;
72388;SDS011;60566;48.062;9.930;2023-02-28T10:14:09;23.08;;;13.07;;
72388;SDS011;60566;48.062;9.930;2023-02-28T10:16:38;19.92;;;11.75;;
72388;SDS011;60566;48.062;9.930;2023-02-28T10:19:09;20.33;;;10.50;;
72388;SDS011;60566;48.062;9.930;2023-02-28T10:21:39;21.45;;;9.73;;
72388;SDS011;60566;48.062;9.930;2023-02-28T10:24:11;21.13;;;11.18;;
72388;SDS011;60566;48.062;9.930;2023-02-28T10:26:41;17.52;;;10.13;;
72388;SDS011;60566;48.062;9.930;2023-02-28T10:29:08;24.05;;;10.63;;
72388;SDS011;60566;48.062;9.930;2023-02-28T10:31:36;21.80;;;11.68;;
72388;SDS011;60566;48.062;9.930;2023-02-28T10:34:01;17.25;;;9.90;;
72388;SDS011;60566;48.062;9.930;2023-02-28T10:36:27;18.73;;;11.30;;
72388;SDS011;60566;48.062;9.930;2023-02-28T10:38:52;20.08;;;11.85;;
72388;SDS011;60566;48.062;9.930;2023-02-28T10:41:26;21.88;;;11.55;;
72388;SDS011;60566;48.062;9.930;2023-02-28T10:43:52;21.02;;;10.55;;
72388;SDS011;60566;48.062;9.930;2023-02-28T10:46:18;20.85;;;11.77;;
72388;SDS011;60566;48.062;9.930;2023-02-28T10:48:47;24.33;;;12.43;;
72388;SDS011;60566;48.062;9.930;2023-02-28T10:51:22;23.98;;;10.82;;
72388;SDS011;60566;48.062;9.930;2023-02-28T10:53:48;21.83;;;11.68;;
72388;SDS011;60566;48.062;9.930;2023-02-28T10:56:15;23.52;;;11.48;;
72388;SDS011;60566;48.062;9.930;2023-02-28T10:58:45;19.33;;;10.50;;
72388;SDS011;60566;48.062;9.930;2023-02-28T11:01:16;19.30;;;10.07;;
72388;SDS011;60566;48.062;9.930;2023-02-28T11:03:43;13.88;;;7.22;;
72388;SDS011;60566;48.062;9.930;2023-02-28T11:06:12;22.25;;;11.45;;
72388;SDS011;60566;48.062;9.930;2023-02-28T11:08:47;16.63;;;8.88;;
72388;SDS011;60566;48.062;9.930;2023-02-28T11:11:14;21.88;;;10.85;;
72388;SDS011;60566;48.062;9.930;2023-02-28T11:13:41;22.02;;;11.02;;
72388;SDS011;60566;48.062;9.930;2023-02-28T11:16:07;18.95;;;10.20;;
72388;SDS011;60566;48.062;9.930;2023-02-28T11:18:36;21.90;;;9.68;;
72388;SDS011;60566;48.062;9.930;2023-02-28T11:21:04;23.98;;;12.48;;
72388;SDS011;60566;48.062;9.930;2023-02-28T11:23:32;25.70;;;12.27;;
72388;SDS011;60566;48.062;9.930;2023-02-28T11:25:59;16.45;;;9.35;;
72388;SDS011;60566;48.062;9.930;2023-02-28T11:28:27;25.08;;;11.80;;
72388;SDS011;60566;48.062;9.930;2023-02-28T11:31:01;18.73;;;9.70;;
72388;SDS011;60566;48.062;9.930;2023-02-28T11:33:31;21.15;;;9.80;;
72388;SDS011;60566;48.062;9.930;2023-02-28T11:36:04;20.88;;;9.75;;
72388;SDS011;60566;48.062;9.930;2023-02-28T11:38:35;19.13;;;11.13;;
72388;SDS011;60566;48.062;9.930;2023-02-28T11:41:11;16.88;;;10.55;;
72388;SDS011;60566;48.062;9.930;2023-02-28T11:43:51;17.95;;;10.48;;
72388;SDS011;60566;48.062;9.930;2023-02-28T11:46:23;26.70;;;12.02;;
72388;SDS011;60566;48.062;9.930;2023-02-28T11:48:55;19.55;;;10.40;;
72388;SDS011;60566;48.062;9.930;2023-02-28T11:51:26;21.67;;;11.00;;
72388;SDS011;60566;48.062;9.930;2023-02-28T11:53:58;24.15;;;13.60;;
72388;SDS011;60566;48.062;9.930;2023-02-28T11:56:32;21.27;;;11.88;;
72388;SDS011;60566;48.062;9.930;2023-02-28T11:59:03;20.58;;;11.32;;
72388;SDS011;60566;48.062;9.930;2023-02-28T12:01:38;24.65;;;11.35;;
72388;SDS011;60566;48.062;9.930;2023-02-28T12:04:12;21.80;;;10.18;;
72388;SDS011;60566;48.062;9.930;2023-02-28T12:06:45;23.13;;;11.82;;
72388;SDS011;60566;48.062;9.930;2023-02-28T12:09:34;20.10;;;10.85;;
72388;SDS011;60566;48.062;9.930;2023-02-28T12:12:12;22.10;;;11.52;;
72388;SDS011;60566;48.062;9.930;2023-02-28T12:14:49;16.98;;;8.98;;
72388;SDS011;60566;48.062;9.930;2023-02-28T12:17:25;20.55;;;10.55;;
72388;SDS011;60566;48.062;9.930;2023-02-28T12:20:02;19.95;;;10.27;;
72388;SDS011;60566;48.062;9.930;2023-02-28T12:22:31;16.98;;;8.50;;
72388;SDS011;60566;48.062;9.930;2023-02-28T12:25:19;20.95;;;9.40;;
72388;SDS011;60566;48.062;9.930;2023-02-28T12:27:48;21.10;;;11.35;;
72388;SDS011;60566;48.062;9.930;2023-02-28T12:30:15;20.65;;;10.93;;
72388;SDS011;60566;48.062;9.930;2023-02-28T12:32:42;22.77;;;12.23;;
72388;SDS011;60566;48.062;9.930;2023-02-28T12:35:11;21.73;;;12.43;;
72388;SDS011;60566;48.062;9.930;2023-02-28T12:37:38;23.75;;;11.70;;
72388;SDS011;60566;48.062;9.930;2023-02-28T12:40:07;18.73;;;10.38;;
72388;SDS011;60566;48.062;9.930;2023-02-28T12:42:39;20.13;;;9.15;;
72388;SDS011;60566;48.062;9.930;2023-02-28T12:45:06;18.50;;;11.20;;
72388;SDS011;60566;48.062;9.930;2023-02-28T12:47:35;23.25;;;12.00;;
72388;SDS011;60566;48.062;9.930;2023-02-28T12:50:03;21.33;;;11.02;;
72388;SDS011;60566;48.062;9.930;2023-02-28T12:52:35;20.90;;;11.15;;
72388;SDS011;60566;48.062;9.930;2023-02-28T12:55:06;16.40;;;9.00;;
72388;SDS011;60566;48.062;9.930;2023-02-28T12:57:39;18.38;;;9.88;;
72388;SDS011;60566;48.062;9.930;2023-02-28T13:00:10;21.35;;;11.70;;
72388;SDS011;60566;48.062;9.930;2023-02-28T13:11:07;19.27;;;10.40;;
72388;SDS011;60566;48.062;9.930;2023-02-28T13:13:53;18.90;;;10.85;;
72388;SDS011;60566;48.062;9.930;2023-02-28T13:16:22;19.77;;;10.35;;
72388;SDS011;60566;48.062;9.930;2023-02-28T13:18:48;15.75;;;9.02;;
72388;SDS011;60566;48.062;9.930;2023-02-28T13:21:21;21.73;;;12.13;;
72388;SDS011;60566;48.062;9.930;2023-02-28T13:23:58;20.48;;;9.15;;
72388;SDS011;60566;48.062;9.930;2023-02-28T13:29:31;20.10;;;10.82;;
72388;SDS011;60566;48.062;9.930;2023-02-28T13:38:12;19.90;;;8.88;;
72388;SDS011;60566;48.062;9.930;2023-02-28T13:40:41;23.08;;;11.50;;
72388;SDS011;60566;48.062;9.930;2023-02-28T13:43:07;17.42;;;10.07;;
72388;SDS011;60566;48.062;9.930;2023-02-28T13:45:35;24.95;;;12.80;;
72388;SDS011;60566;48.062;9.930;2023-02-28T13:48:00;22.08;;;11.63;;
72388;SDS011;60566;48.062;9.930;2023-02-28T13:50:28;18.90;;;11.70;;
72388;SDS011;60566;48.062;9.930;2023-02-28T13:53:02;21.50;;;11.75;;
72388;SDS011;60566;48.062;9.930;2023-02-28T13:55:42;16.65;;;10.07;;
72388;SDS011;60566;48.062;9.930;2023-02-28T13:58:10;24.67;;;11.82;;
72388;SDS011;60566;48.062;9.930;2023-02-28T14:04:02;17.48;;;11.20;;
72388;SDS011;60566;48.062;9.930;2023-02-28T14:06:37;19.90;;;10.90;;
72388;SDS011;60566;48.062;9.930;2023-02-28T14:09:06;21.48;;;11.35;;
72388;SDS011;60566;48.062;9.930;2023-02-28T14:11:43;21.30;;;11.13;;
72388;SDS011;60566;48.062;9.930;2023-02-28T14:14:09;23.85;;;12.60;;
72388;SDS011;60566;48.062;9.930;2023-02-28T14:17:16;22.98;;;11.77;;
72388;SDS011;60566;48.062;9.930;2023-02-28T14:19:43;24.00;;;11.23;;
72388;SDS011;60566;48.062;9.930;2023-02-28T14:22:14;21.33;;;10.35;;
72388;SDS011;60566;48.062;9.930;2023-02-28T14:25:04;19.35;;;10.82;;
72388;SDS011;60566;48.062;9.930;2023-02-28T14:27:41;21.92;;;10.75;;
72388;SDS011;60566;48.062;9.930;2023-02-28T14:30:24;18.83;;;10.90;;
72388;SDS011;60566;48.062;9.930;2023-02-28T14:33:13;19.48;;;9.10;;
72388;SDS011;60566;48.062;9.930;2023-02-28T14:35:47;19.17;;;10.50;;
72388;SDS011;60566;48.062;9.930;2023-02-28T14:38:19;20.80;;;9.98;;
72388;SDS011;60566;48.062;9.930;2023-02-28T14:40:47;20.05;;;9.65;;
72388;SDS011;60566;48.062;9.930;2023-02-28T14:43:21;20.88;;;12.02;;
72388;SDS011;60566;48.062;9.930;2023-02-28T14:45:49;17.35;;;10.93;;
72388;SDS011;60566;48.062;9.930;2023-02-28T14:48:17;23.95;;;12.02;;
72388;SDS011;60566;48.062;9.930;2023-02-28T14:50:47;19.05;;;10.50;;
72388;SDS011;60566;48.062;9.930;2023-02-28T14:53:15;21.15;;;10.70;;
72388;SDS011;60566;48.062;9.930;2023-02-28T14:55:44;22.67;;;11.80;;
72388;SDS011;60566;48.062;9.930;2023-02-28T14:58:17;19.88;;;11.30;;
72388;SDS011;60566;48.062;9.930;2023-02-28T15:00:47;19.92;;;10.90;;
72388;SDS011;60566;48.062;9.930;2023-02-28T15:03:19;19.42;;;10.50;;
72388;SDS011;60566;48.062;9.930;2023-02-28T15:05:51;20.95;;;11.30;;
72388;SDS011;60566;48.062;9.930;2023-02-28T15:08:18;19.30;;;9.80;;
72388;SDS011;60566;48.062;9.930;2023-02-28T15:10:53;23.58;;;12.15;;
72388;SDS011;60566;48.062;9.930;2023-02-28T15:13:19;20.70;;;10.80;;
72388;SDS011;60566;48.062;9.930;2023-02-28T15:15:46;15.32;;;9.80;;
72388;SDS011;60566;48.062;9.930;2023-02-28T15:18:15;20.15;;;10.95;;